createdAt,value
2024-03-15T00:00:08.315Z,15.30
2024-03-15T00:02:56.802Z,15.29
2024-03-15T00:05:25.454Z,15.29
2024-03-15T00:07:54.089Z,15.32
2024-03-15T00:10:22.267Z,15.35
2024-03-15T00:12:51.358Z,15.37
2024-03-15T00:15:19.941Z,15.37
2024-03-15T00:17:49.084Z,15.38
2024-03-15T00:20:18.817Z,15.31
2024-03-15T00:22:47.494Z,15.22
2024-03-15T00:25:16.209Z,15.18
2024-03-15T00:27:44.815Z,15.15
2024-03-15T00:30:13.585Z,15.14
2024-03-15T00:32:43.854Z,15.15
2024-03-15T00:35:12.669Z,15.14
2024-03-15T00:37:41.263Z,15.12
2024-03-15T00:40:10.277Z,15.09
2024-03-15T00:42:38.317Z,15.08
2024-03-15T00:45:08.246Z,15.09
2024-03-15T00:47:37.106Z,15.11
2024-03-15T00:50:06.546Z,15.11
2024-03-15T00:52:35.134Z,15.12
2024-03-15T00:55:04.147Z,15.12
2024-03-15T00:57:32.433Z,15.12
2024-03-15T01:00:01.298Z,15.09
2024-03-15T01:04:38.019Z,15.12
2024-03-15T01:07:05.919Z,15.11
2024-03-15T01:09:33.765Z,15.11
2024-03-15T01:12:02.240Z,15.09
2024-03-15T01:14:30.530Z,15.07
2024-03-15T01:16:59.441Z,15.07
2024-03-15T01:19:28.505Z,15.07
2024-03-15T01:21:56.997Z,15.06
2024-03-15T01:24:26.111Z,15.04
2024-03-15T01:26:54.910Z,15.04
2024-03-15T01:29:23.341Z,15.03
2024-03-15T01:31:51.753Z,15.03
2024-03-15T01:34:19.910Z,15.03
2024-03-15T01:36:48.307Z,15.03
2024-03-15T01:39:16.319Z,15.02
2024-03-15T01:41:44.329Z,15.03
2024-03-15T01:44:12.221Z,15.03
2024-03-15T01:46:39.966Z,15.03
2024-03-15T01:49:08.234Z,15.02
2024-03-15T01:51:36.644Z,15.02
2024-03-15T01:54:04.649Z,15.03
2024-03-15T01:56:33.621Z,15.02
2024-03-15T01:59:01.431Z,15.01
2024-03-15T02:01:30.581Z,14.98
2024-03-15T02:03:58.705Z,14.97
2024-03-15T02:06:26.797Z,14.97
2024-03-15T02:08:56.489Z,14.97
2024-03-15T02:11:25.062Z,14.97
2024-03-15T02:13:53.454Z,14.96
2024-03-15T02:16:21.684Z,14.94
2024-03-15T02:18:50.407Z,14.93
2024-03-15T02:21:18.401Z,14.93
2024-03-15T02:23:47.068Z,14.91
2024-03-15T02:26:15.584Z,14.89
2024-03-15T02:28:43.370Z,14.87
2024-03-15T02:31:12.193Z,14.84
2024-03-15T02:33:40.493Z,14.82
2024-03-15T02:36:08.935Z,14.79
2024-03-15T02:38:38.159Z,14.74
2024-03-15T02:41:07.220Z,14.71
2024-03-15T02:43:35.602Z,14.69
2024-03-15T02:46:03.568Z,14.66
2024-03-15T02:48:39.332Z,14.62
2024-03-15T02:51:07.996Z,14.59
2024-03-15T02:53:36.146Z,14.56
2024-03-15T02:56:05.039Z,14.53
2024-03-15T02:58:32.809Z,14.52
2024-03-15T03:01:00.641Z,14.50
2024-03-15T03:03:30.266Z,14.48
2024-03-15T03:05:58.806Z,14.46
2024-03-15T03:08:26.587Z,14.44
2024-03-15T03:10:55.139Z,14.43
2024-03-15T03:13:23.986Z,14.41
2024-03-15T03:15:52.531Z,14.41
2024-03-15T03:18:21.203Z,14.40
2024-03-15T03:20:50.051Z,14.39
2024-03-15T03:23:17.910Z,14.37
2024-03-15T03:25:45.959Z,14.35
2024-03-15T03:28:14.159Z,14.33
2024-03-15T03:30:43.062Z,14.30
2024-03-15T03:33:11.853Z,14.29
2024-03-15T03:35:40.214Z,14.30
2024-03-15T03:38:09.066Z,14.30
2024-03-15T03:40:37.747Z,14.32
2024-03-15T03:43:05.697Z,14.30
2024-03-15T03:45:33.590Z,14.25
2024-03-15T03:48:01.696Z,14.21
2024-03-15T03:50:30.881Z,14.16
2024-03-15T03:52:58.729Z,14.13
2024-03-15T03:55:27.348Z,14.09
2024-03-15T03:57:58.850Z,14.05
2024-03-15T04:00:27.463Z,14.03
2024-03-15T04:02:55.797Z,13.99
2024-03-15T04:05:24.201Z,14.00
2024-03-15T04:07:52.949Z,14.01
2024-03-15T04:10:20.844Z,13.98
2024-03-15T04:12:49.054Z,13.95
2024-03-15T04:15:25.730Z,13.94
2024-03-15T04:17:58.882Z,13.94
2024-03-15T04:20:28.427Z,13.93
2024-03-15T04:22:58.009Z,13.92
2024-03-15T04:25:26.760Z,13.93
2024-03-15T04:27:54.865Z,13.92
2024-03-15T04:30:24.458Z,13.91
2024-03-15T04:32:53.014Z,13.91
2024-03-15T04:35:21.211Z,13.91
2024-03-15T04:37:49.067Z,13.90
2024-03-15T04:40:17.647Z,13.89
2024-03-15T04:42:46.192Z,13.87
2024-03-15T04:45:15.070Z,13.85
2024-03-15T04:47:43.685Z,13.85
2024-03-15T04:50:12.235Z,13.82
2024-03-15T04:52:43.185Z,13.80
2024-03-15T04:55:11.786Z,13.77
2024-03-15T04:57:40.840Z,13.77
2024-03-15T05:00:10.598Z,13.76
2024-03-15T05:02:39.818Z,13.73
2024-03-15T05:05:08.634Z,13.69
2024-03-15T05:07:36.593Z,13.68
2024-03-15T05:10:04.828Z,13.67
2024-03-15T05:12:32.910Z,13.68
2024-03-15T05:15:01.452Z,13.67
2024-03-15T05:17:30.496Z,13.68
2024-03-15T05:19:58.881Z,13.69
2024-03-15T05:22:27.012Z,13.71
2024-03-15T05:24:54.921Z,13.72
2024-03-15T05:27:23.027Z,13.74
2024-03-15T05:29:51.488Z,13.76
2024-03-15T05:32:19.347Z,13.77
2024-03-15T05:34:47.275Z,13.77
2024-03-15T05:37:16.212Z,13.77
2024-03-15T05:39:45.917Z,13.79
2024-03-15T05:42:13.978Z,13.81
2024-03-15T05:44:41.957Z,13.84
2024-03-15T05:47:10.738Z,13.88
2024-03-15T05:49:39.645Z,13.94
2024-03-15T05:52:07.604Z,14.03
2024-03-15T05:54:36.060Z,14.13
2024-03-15T05:57:05.147Z,14.26
2024-03-15T05:59:33.297Z,14.37
2024-03-15T06:02:01.780Z,14.48
2024-03-15T06:04:30.069Z,14.58
2024-03-15T06:06:57.996Z,14.67
2024-03-15T06:09:25.927Z,14.73
2024-03-15T06:11:55.527Z,14.80
2024-03-15T06:14:23.460Z,14.87
2024-03-15T06:16:51.573Z,14.91
2024-03-15T06:19:20.170Z,14.95
2024-03-15T06:21:49.137Z,14.99
2024-03-15T06:24:18.216Z,15.05
2024-03-15T06:26:49.933Z,15.10
2024-03-15T06:29:19.193Z,15.17
2024-03-15T06:31:47.860Z,15.25
2024-03-15T06:34:15.770Z,15.36
2024-03-15T06:36:43.673Z,15.47
2024-03-15T06:39:11.786Z,15.60
2024-03-15T06:41:39.823Z,15.80
2024-03-15T06:44:07.727Z,16.13
2024-03-15T06:46:36.030Z,16.90
2024-03-15T06:49:04.148Z,17.83
2024-03-15T06:51:32.506Z,18.43
2024-03-15T06:54:03.020Z,18.53
2024-03-15T06:56:31.179Z,19.18
2024-03-15T06:58:59.242Z,20.24
2024-03-15T07:01:27.193Z,21.30
2024-03-15T07:03:56.984Z,22.35
2024-03-15T07:06:25.943Z,23.35
2024-03-15T07:08:53.701Z,24.32
2024-03-15T07:11:21.794Z,25.20
2024-03-15T07:13:49.887Z,25.55
2024-03-15T07:16:17.775Z,25.15
2024-03-15T07:18:45.864Z,24.73
2024-03-15T07:21:13.946Z,25.21
2024-03-15T07:23:42.582Z,26.25
2024-03-15T07:26:10.828Z,27.28
2024-03-15T07:28:39.372Z,28.23
2024-03-15T07:31:07.410Z,29.19
2024-03-15T07:33:36.567Z,29.98
2024-03-15T07:36:06.198Z,30.46
2024-03-15T07:38:35.860Z,30.77
2024-03-15T07:41:09.976Z,31.32
2024-03-15T07:43:39.004Z,32.08
2024-03-15T07:46:07.312Z,32.81
2024-03-15T07:48:36.037Z,33.62
2024-03-15T07:51:04.315Z,34.37
2024-03-15T07:53:32.513Z,35.11
2024-03-15T07:56:01.113Z,35.72
2024-03-15T07:58:31.562Z,36.22
2024-03-15T08:00:59.541Z,36.67
2024-03-15T08:03:27.994Z,37.22
2024-03-15T08:05:56.685Z,37.76
2024-03-15T08:08:25.018Z,38.26
2024-03-15T08:10:53.778Z,38.67
2024-03-15T08:13:22.868Z,38.92
2024-03-15T08:15:57.971Z,39.04
2024-03-15T08:18:29.789Z,39.28
2024-03-15T08:20:57.935Z,39.39
2024-03-15T08:23:25.930Z,39.57
2024-03-15T08:25:55.145Z,39.72
2024-03-15T08:28:22.979Z,39.74
2024-03-15T08:30:51.028Z,39.66
2024-03-15T08:33:19.765Z,39.62
2024-03-15T08:35:48.389Z,39.56
2024-03-15T08:38:17.368Z,39.56
2024-03-15T08:40:46.007Z,39.02
2024-03-15T08:43:14.221Z,37.92
2024-03-15T08:45:45.453Z,36.63
2024-03-15T08:48:13.897Z,35.68
2024-03-15T08:50:41.993Z,34.94
2024-03-15T08:53:09.933Z,34.60
2024-03-15T08:55:38.130Z,34.71
2024-03-15T08:58:06.675Z,35.50
2024-03-15T09:00:35.779Z,36.72
2024-03-15T09:03:05.802Z,37.91
2024-03-15T09:05:35.902Z,38.94
2024-03-15T09:08:04.067Z,39.50
2024-03-15T09:10:32.184Z,40.07
2024-03-15T09:13:00.122Z,40.59
2024-03-15T09:15:28.183Z,40.96
2024-03-15T09:17:56.497Z,41.17
2024-03-15T09:20:26.253Z,41.45
2024-03-15T09:22:55.337Z,41.72
2024-03-15T09:25:23.826Z,41.90
2024-03-15T09:27:52.262Z,42.06
2024-03-15T09:30:21.448Z,42.34
2024-03-15T09:32:49.514Z,42.51
2024-03-15T09:35:17.590Z,42.53
2024-03-15T09:37:46.640Z,42.24
2024-03-15T09:40:15.567Z,41.75
2024-03-15T09:42:47.353Z,41.30
2024-03-15T09:45:17.115Z,40.93
2024-03-15T09:47:50.304Z,40.61
2024-03-15T09:50:21.068Z,40.44
2024-03-15T09:52:50.017Z,40.29
2024-03-15T09:55:19.359Z,40.23
2024-03-15T09:57:50.582Z,40.07
2024-03-15T10:00:23.446Z,39.81
2024-03-15T10:02:55.069Z,39.72
2024-03-15T10:05:23.801Z,39.71
2024-03-15T10:07:52.767Z,39.79
2024-03-15T10:10:22.124Z,39.91
2024-03-15T10:12:54.053Z,39.79
2024-03-15T10:15:23.893Z,39.72
2024-03-15T10:17:53.953Z,39.62
2024-03-15T10:20:26.744Z,39.22
2024-03-15T10:22:56.613Z,39.04
2024-03-15T10:25:26.115Z,38.89
2024-03-15T10:27:56.901Z,38.86
2024-03-15T10:30:27.590Z,38.81
2024-03-15T10:32:57.835Z,38.81
2024-03-15T10:35:26.050Z,38.74
2024-03-15T10:37:54.184Z,38.66
2024-03-15T10:40:24.246Z,38.52
2024-03-15T10:42:57.570Z,38.36
2024-03-15T10:45:26.746Z,38.33
2024-03-15T10:47:56.097Z,38.28
2024-03-15T10:50:27.265Z,38.38
2024-03-15T10:52:57.915Z,38.26
2024-03-15T10:55:30.324Z,38.09
2024-03-15T10:58:02.430Z,37.98
2024-03-15T11:00:32.285Z,37.84
2024-03-15T11:03:17.562Z,37.75
2024-03-15T11:05:47.150Z,37.68
2024-03-15T11:08:18.288Z,37.47
2024-03-15T11:11:02.390Z,37.23
2024-03-15T11:13:36.558Z,37.02
2024-03-15T11:16:20.504Z,36.89
2024-03-15T11:18:49.646Z,36.88
2024-03-15T11:21:23.439Z,36.74
2024-03-15T11:23:51.884Z,36.55
2024-03-15T11:26:21.833Z,36.41
2024-03-15T11:28:59.798Z,36.21
2024-03-15T11:31:30.713Z,36.18
2024-03-15T11:33:59.418Z,36.16
2024-03-15T11:36:27.935Z,35.98
2024-03-15T11:38:56.136Z,35.63
2024-03-15T11:41:24.124Z,35.39
2024-03-15T11:43:55.850Z,35.16
2024-03-15T11:46:25.029Z,34.88
2024-03-15T11:48:53.588Z,34.60
2024-03-15T11:51:21.721Z,34.48
2024-03-15T11:53:49.864Z,34.27
2024-03-15T11:56:17.838Z,33.92
2024-03-15T11:58:46.749Z,33.68
2024-03-15T12:01:15.179Z,33.28
2024-03-15T12:03:43.291Z,32.94
2024-03-15T12:06:11.752Z,32.68
2024-03-15T12:08:42.503Z,32.40
2024-03-15T12:11:14.901Z,32.02
2024-03-15T12:13:48.135Z,31.75
2024-03-15T12:16:16.766Z,31.44
2024-03-15T12:18:45.259Z,30.91
2024-03-15T12:21:13.478Z,30.54
2024-03-15T12:23:42.596Z,30.20
2024-03-15T12:26:10.567Z,30.04
2024-03-15T12:28:40.950Z,29.81
2024-03-15T12:31:09.034Z,29.63
2024-03-15T12:33:37.062Z,29.64
2024-03-15T12:36:07.666Z,29.70
2024-03-15T12:38:35.623Z,29.82
2024-03-15T12:41:03.640Z,29.95
2024-03-15T12:43:31.979Z,29.79
2024-03-15T12:45:59.941Z,29.54
2024-03-15T12:48:27.844Z,29.44
2024-03-15T12:51:05.971Z,29.39
2024-03-15T12:53:34.057Z,29.36
2024-03-15T12:56:02.041Z,29.32
2024-03-15T12:58:30.468Z,29.31
2024-03-15T13:01:00.102Z,29.27
2024-03-15T13:03:28.356Z,29.21
2024-03-15T13:05:56.770Z,29.05
2024-03-15T13:08:24.755Z,29.02
2024-03-15T13:10:52.772Z,29.05
2024-03-15T13:13:20.800Z,29.12
2024-03-15T13:15:48.908Z,29.05
2024-03-15T13:18:18.716Z,28.86
2024-03-15T13:20:47.441Z,28.65
2024-03-15T13:23:15.461Z,28.48
2024-03-15T13:25:43.302Z,28.40
2024-03-15T13:28:11.442Z,28.21
2024-03-15T13:30:40.034Z,28.06
2024-03-15T13:33:09.901Z,27.91
2024-03-15T13:35:39.466Z,27.61
2024-03-15T13:38:08.222Z,27.51
2024-03-15T13:40:37.564Z,27.37
2024-03-15T13:43:05.718Z,27.27
2024-03-15T13:45:37.069Z,27.25
2024-03-15T13:48:05.540Z,27.21
2024-03-15T13:50:33.664Z,27.17
2024-03-15T13:53:02.114Z,26.88
2024-03-15T13:55:30.619Z,26.60
2024-03-15T13:57:59.318Z,26.53
2024-03-15T14:00:31.264Z,26.49
2024-03-15T14:03:04.872Z,26.56
2024-03-15T14:05:40.668Z,26.69
2024-03-15T14:08:17.363Z,26.80
2024-03-15T14:10:47.779Z,26.91
2024-03-15T14:13:17.085Z,26.90
2024-03-15T14:15:45.780Z,26.85
2024-03-15T14:18:15.161Z,26.93
2024-03-15T14:20:44.302Z,27.02
2024-03-15T14:23:12.466Z,27.04
2024-03-15T14:25:40.863Z,27.01
2024-03-15T14:28:09.095Z,26.94
2024-03-15T14:30:38.674Z,26.88
2024-03-15T14:33:07.426Z,26.93
2024-03-15T14:35:35.855Z,27.10
2024-03-15T14:38:04.491Z,27.13
2024-03-15T14:40:32.277Z,27.15
2024-03-15T14:43:02.271Z,27.08
2024-03-15T14:45:32.329Z,26.93
2024-03-15T14:48:07.601Z,26.90
2024-03-15T14:50:41.529Z,26.96
2024-03-15T14:53:09.825Z,27.04
2024-03-15T14:55:37.979Z,27.10
2024-03-15T14:58:06.071Z,27.13
2024-03-15T15:00:37.118Z,27.20
2024-03-15T15:03:05.658Z,27.25
2024-03-15T15:05:33.563Z,27.15
2024-03-15T15:08:01.623Z,27.13
2024-03-15T15:10:29.673Z,27.12
2024-03-15T15:12:57.699Z,27.08
2024-03-15T15:15:27.841Z,27.01
2024-03-15T15:17:57.363Z,27.01
2024-03-15T15:20:26.212Z,27.03
2024-03-15T15:22:54.060Z,27.00
2024-03-15T15:25:22.743Z,26.88
2024-03-15T15:27:51.662Z,26.83
2024-03-15T15:30:20.082Z,26.82
2024-03-15T15:32:48.379Z,26.82
2024-03-15T15:35:17.185Z,26.70
2024-03-15T15:37:45.853Z,26.63
2024-03-15T15:40:15.538Z,26.51
2024-03-15T15:42:47.801Z,26.35
2024-03-15T15:45:17.361Z,26.27
2024-03-15T15:47:45.782Z,26.19
2024-03-15T15:50:17.582Z,26.18
2024-03-15T15:52:47.767Z,26.11
2024-03-15T15:55:17.155Z,26.05
2024-03-15T15:57:45.240Z,25.92
2024-03-15T16:00:13.447Z,25.78
2024-03-15T16:02:42.432Z,25.57
2024-03-15T16:05:10.475Z,25.49
2024-03-15T16:07:39.234Z,25.42
2024-03-15T16:10:07.879Z,25.33
2024-03-15T16:12:35.870Z,25.30
2024-03-15T16:15:07.019Z,25.27
2024-03-15T16:17:36.139Z,25.13
2024-03-15T16:20:04.600Z,24.84
2024-03-15T16:22:32.450Z,24.74
2024-03-15T16:25:00.775Z,24.65
2024-03-15T16:27:30.096Z,24.60
2024-03-15T16:29:58.633Z,24.54
2024-03-15T16:32:26.466Z,24.52
2024-03-15T16:34:54.389Z,24.43
2024-03-15T16:37:23.872Z,24.29
2024-03-15T16:39:51.861Z,24.20
2024-03-15T16:42:20.444Z,24.12
2024-03-15T16:44:49.081Z,23.98
2024-03-15T16:47:17.496Z,23.86
2024-03-15T16:49:45.968Z,23.82
2024-03-15T16:52:14.848Z,23.70
2024-03-15T16:54:43.354Z,23.51
2024-03-15T16:57:11.337Z,23.26
2024-03-15T16:59:39.784Z,23.11
2024-03-15T17:02:10.025Z,22.92
2024-03-15T17:04:38.712Z,22.71
2024-03-15T17:07:06.944Z,22.49
2024-03-15T17:09:37.191Z,22.29
2024-03-15T17:12:06.171Z,22.07
2024-03-15T17:14:34.164Z,21.85
2024-03-15T17:17:02.272Z,21.72
2024-03-15T17:19:30.646Z,21.57
2024-03-15T17:21:58.617Z,21.39
2024-03-15T17:24:26.924Z,21.32
2024-03-15T17:26:54.877Z,21.25
2024-03-15T17:29:23.199Z,21.20
2024-03-15T17:31:51.378Z,21.13
2024-03-15T17:34:19.562Z,21.06
2024-03-15T17:36:47.664Z,21.01
2024-03-15T17:39:17.020Z,20.92
2024-03-15T17:41:45.042Z,20.87
2024-03-15T17:44:13.404Z,20.83
2024-03-15T17:46:42.258Z,20.76
2024-03-15T17:49:11.064Z,20.74
2024-03-15T17:51:39.251Z,20.71
2024-03-15T17:54:07.385Z,20.64
2024-03-15T17:56:36.818Z,20.57
2024-03-15T17:59:04.817Z,20.50
2024-03-15T18:01:33.009Z,20.43
2024-03-15T18:04:00.968Z,20.37
2024-03-15T18:06:29.010Z,20.31
2024-03-15T18:08:57.053Z,20.27
2024-03-15T18:11:25.249Z,20.22
2024-03-15T18:13:53.241Z,20.17
2024-03-15T18:16:21.331Z,20.12
2024-03-15T18:18:52.750Z,20.05
2024-03-15T18:21:20.683Z,20.04
2024-03-15T18:23:48.829Z,20.02
2024-03-15T18:26:16.756Z,20.03
2024-03-15T18:28:44.746Z,19.95
2024-03-15T18:31:13.389Z,19.92
2024-03-15T18:33:41.351Z,19.93
2024-03-15T18:36:10.125Z,19.94
2024-03-15T18:38:38.168Z,19.94
2024-03-15T18:41:06.296Z,19.91
2024-03-15T18:43:35.156Z,19.87
2024-03-15T18:46:06.336Z,19.80
2024-03-15T18:48:35.260Z,19.80
2024-03-15T18:51:03.583Z,19.80
2024-03-15T18:53:32.162Z,19.78
2024-03-15T18:56:00.048Z,19.77
2024-03-15T18:58:28.154Z,19.74
2024-03-15T19:00:56.803Z,19.75
2024-03-15T19:03:24.717Z,19.72
2024-03-15T19:05:53.743Z,19.70
2024-03-15T19:08:21.859Z,19.65
2024-03-15T19:10:49.966Z,19.57
2024-03-15T19:13:18.067Z,19.46
2024-03-15T19:15:46.229Z,19.41
2024-03-15T19:18:14.211Z,19.40
2024-03-15T19:20:42.105Z,19.37
2024-03-15T19:23:12.559Z,19.32
2024-03-15T19:25:40.975Z,19.33
2024-03-15T19:28:09.067Z,19.32
2024-03-15T19:30:37.188Z,19.32
2024-03-15T19:33:05.373Z,19.32
2024-03-15T19:35:34.438Z,19.31
2024-03-15T19:38:02.689Z,19.35
2024-03-15T19:40:30.780Z,19.38
2024-03-15T19:42:58.949Z,19.39
2024-03-15T19:45:27.634Z,19.39
2024-03-15T19:47:55.581Z,19.40
2024-03-15T19:50:23.704Z,19.43
2024-03-15T19:52:51.742Z,19.43
2024-03-15T19:55:20.016Z,19.43
2024-03-15T19:57:48.449Z,19.40
2024-03-15T20:00:16.739Z,19.39
2024-03-15T20:02:45.224Z,19.40
2024-03-15T20:05:13.437Z,19.40
2024-03-15T20:07:42.396Z,19.40
2024-03-15T20:10:10.526Z,19.38
2024-03-15T20:12:38.949Z,19.36
2024-03-15T20:15:07.329Z,19.33
2024-03-15T20:17:35.162Z,19.32
2024-03-15T20:20:03.902Z,19.31
2024-03-15T20:22:32.482Z,19.29
2024-03-15T20:25:00.364Z,19.28
2024-03-15T20:27:28.445Z,19.27
2024-03-15T20:29:56.892Z,19.27
2024-03-15T20:32:24.838Z,19.28
2024-03-15T20:34:52.814Z,19.27
2024-03-15T20:37:21.103Z,19.25
2024-03-15T20:39:49.066Z,19.24
2024-03-15T20:42:16.881Z,19.24
2024-03-15T20:44:44.930Z,19.24
2024-03-15T20:47:13.495Z,19.24
2024-03-15T20:49:42.875Z,19.25
2024-03-15T20:52:10.925Z,19.24
2024-03-15T20:54:39.034Z,19.22
2024-03-15T20:57:06.946Z,19.21
2024-03-15T20:59:38.182Z,19.19
2024-03-15T21:02:06.868Z,19.18
2024-03-15T21:04:38.113Z,19.19
2024-03-15T21:07:07.029Z,19.18
2024-03-15T21:09:35.577Z,19.17
2024-03-15T21:12:04.340Z,19.16
2024-03-15T21:14:33.218Z,19.16
2024-03-15T21:17:01.352Z,19.15
2024-03-15T21:19:30.271Z,19.15
2024-03-15T21:21:58.286Z,19.15
2024-03-15T21:24:26.653Z,19.15
2024-03-15T21:26:57.740Z,19.16
2024-03-15T21:29:31.910Z,19.16
2024-03-15T21:32:00.171Z,19.13
2024-03-15T21:34:28.304Z,19.13
2024-03-15T21:36:58.308Z,19.10
2024-03-15T21:39:26.986Z,19.08
2024-03-15T21:41:55.543Z,19.06
2024-03-15T21:44:24.902Z,19.04
2024-03-15T21:46:53.287Z,19.02
2024-03-15T21:49:21.741Z,19.00
2024-03-15T21:51:49.691Z,18.98
2024-03-15T21:54:17.696Z,18.97
2024-03-15T21:56:45.709Z,18.95
2024-03-15T21:59:13.583Z,18.91
2024-03-15T22:01:41.516Z,18.88
2024-03-15T22:04:09.621Z,18.85
2024-03-15T22:06:37.696Z,18.80
2024-03-15T22:09:06.047Z,18.76
2024-03-15T22:11:34.456Z,18.73
2024-03-15T22:14:02.391Z,18.71
2024-03-15T22:16:30.316Z,18.68
2024-03-15T22:18:58.278Z,18.66
2024-03-15T22:21:26.191Z,18.63
2024-03-15T22:23:54.566Z,18.61
2024-03-15T22:26:22.637Z,18.60
2024-03-15T22:28:50.477Z,18.57
2024-03-15T22:31:18.978Z,18.52
2024-03-15T22:33:47.079Z,18.49
2024-03-15T22:36:14.950Z,18.45
2024-03-15T22:38:43.030Z,18.41
2024-03-15T22:41:11.566Z,18.38
2024-03-15T22:43:39.354Z,18.35
2024-03-15T22:46:07.472Z,18.32
2024-03-15T22:48:35.490Z,18.27
2024-03-15T22:51:04.138Z,18.23
2024-03-15T22:53:32.096Z,18.18
2024-03-15T22:56:00.294Z,18.16
2024-03-15T22:58:28.831Z,18.12
2024-03-15T23:00:56.797Z,18.09
2024-03-15T23:03:24.944Z,18.07
2024-03-15T23:05:53.410Z,18.04
2024-03-15T23:08:21.536Z,18.02
2024-03-15T23:10:49.454Z,17.97
2024-03-15T23:13:17.466Z,17.94
2024-03-15T23:15:46.088Z,17.92
2024-03-15T23:18:14.052Z,17.88
2024-03-15T23:20:42.124Z,17.84
2024-03-15T23:23:10.825Z,17.79
2024-03-15T23:25:39.252Z,17.77
2024-03-15T23:28:07.513Z,17.74
2024-03-15T23:30:36.061Z,17.71
2024-03-15T23:33:05.878Z,17.69
2024-03-15T23:35:34.740Z,17.69
2024-03-15T23:38:03.390Z,17.69
2024-03-15T23:40:31.346Z,17.69
2024-03-15T23:43:00.211Z,17.68
2024-03-15T23:45:28.224Z,17.66
2024-03-15T23:47:57.164Z,17.63
2024-03-15T23:50:25.126Z,17.61
2024-03-15T23:52:53.056Z,17.58
2024-03-15T23:55:21.171Z,17.56
2024-03-15T23:57:49.182Z,17.54
